sensor_id;sensor_type;location;lat;lon;timestamp;P1;durP1;ratioP1;P2;durP2;ratioP2
32946;SDS011;54465;51.230;22.504;2023-02-12T00:02:41;2.53;;;1.20;;
32946;SDS011;54465;51.230;22.504;2023-02-12T00:07:42;1.88;;;0.80;;
32946;SDS011;54465;51.230;22.504;2023-02-12T00:12:42;3.20;;;1.23;;
32946;SDS011;54465;51.230;22.504;2023-02-12T00:17:42;3.25;;;1.05;;
32946;SDS011;54465;51.230;22.504;2023-02-12T00:22:43;2.90;;;1.40;;
32946;SDS011;54465;51.230;22.504;2023-02-12T00:27:43;2.20;;;1.15;;
32946;SDS011;54465;51.230;22.504;2023-02-12T00:32:44;1.95;;;1.00;;
32946;SDS011;54465;51.230;22.504;2023-02-12T00:37:45;1.85;;;1.00;;
32946;SDS011;54465;51.230;22.504;2023-02-12T00:42:47;4.07;;;1.33;;
32946;SDS011;54465;51.230;22.504;2023-02-12T00:47:47;3.90;;;1.70;;
32946;SDS011;54465;51.230;22.504;2023-02-12T00:52:49;2.28;;;1.33;;
32946;SDS011;54465;51.230;22.504;2023-02-12T00:57:49;2.92;;;1.10;;
32946;SDS011;54465;51.230;22.504;2023-02-12T01:02:50;1.20;;;1.08;;
32946;SDS011;54465;51.230;22.504;2023-02-12T01:07:51;3.13;;;1.00;;
32946;SDS011;54465;51.230;22.504;2023-02-12T01:12:52;1.63;;;0.98;;
32946;SDS011;54465;51.230;22.504;2023-02-12T01:17:53;1.70;;;1.30;;
32946;SDS011;54465;51.230;22.504;2023-02-12T01:22:53;2.22;;;1.25;;
32946;SDS011;54465;51.230;22.504;2023-02-12T01:27:54;1.75;;;0.93;;
32946;SDS011;54465;51.230;22.504;2023-02-12T01:32:54;1.58;;;0.98;;
32946;SDS011;54465;51.230;22.504;2023-02-12T01:37:55;2.10;;;1.30;;
32946;SDS011;54465;51.230;22.504;2023-02-12T01:42:58;2.75;;;0.90;;
32946;SDS011;54465;51.230;22.504;2023-02-12T01:48:00;2.42;;;0.93;;
32946;SDS011;54465;51.230;22.504;2023-02-12T01:53:00;1.42;;;0.90;;
32946;SDS011;54465;51.230;22.504;2023-02-12T01:58:01;1.10;;;1.00;;
32946;SDS011;54465;51.230;22.504;2023-02-12T02:03:04;2.33;;;0.98;;
32946;SDS011;54465;51.230;22.504;2023-02-12T02:08:04;3.03;;;1.00;;
32946;SDS011;54465;51.230;22.504;2023-02-12T02:13:05;1.30;;;0.57;;
32946;SDS011;54465;51.230;22.504;2023-02-12T02:18:44;1.73;;;0.80;;
32946;SDS011;54465;51.230;22.504;2023-02-12T02:29:04;2.63;;;1.10;;
32946;SDS011;54465;51.230;22.504;2023-02-12T02:34:35;1.88;;;0.80;;
32946;SDS011;54465;51.230;22.504;2023-02-12T02:39:50;1.38;;;0.80;;
32946;SDS011;54465;51.230;22.504;2023-02-12T02:44:54;3.45;;;1.15;;
32946;SDS011;54465;51.230;22.504;2023-02-12T02:49:58;3.15;;;0.93;;
32946;SDS011;54465;51.230;22.504;2023-02-12T02:55:07;1.43;;;0.90;;
32946;SDS011;54465;51.230;22.504;2023-02-12T03:00:13;1.05;;;0.77;;
32946;SDS011;54465;51.230;22.504;2023-02-12T03:10:19;0.80;;;0.80;;
32946;SDS011;54465;51.230;22.504;2023-02-12T03:15:24;1.75;;;1.10;;
32946;SDS011;54465;51.230;22.504;2023-02-12T03:20:32;1.20;;;0.88;;
32946;SDS011;54465;51.230;22.504;2023-02-12T03:25:45;1.42;;;0.82;;
32946;SDS011;54465;51.230;22.504;2023-02-12T03:30:51;1.10;;;0.90;;
32946;SDS011;54465;51.230;22.504;2023-02-12T03:41:40;0.93;;;0.60;;
32946;SDS011;54465;51.230;22.504;2023-02-12T03:51:52;1.75;;;0.90;;
32946;SDS011;54465;51.230;22.504;2023-02-12T03:57:13;1.13;;;0.70;;
32946;SDS011;54465;51.230;22.504;2023-02-12T04:02:17;1.20;;;0.70;;
32946;SDS011;54465;51.230;22.504;2023-02-12T04:07:18;1.75;;;1.33;;
32946;SDS011;54465;51.230;22.504;2023-02-12T04:23:19;1.50;;;0.90;;
32946;SDS011;54465;51.230;22.504;2023-02-12T04:39:15;1.70;;;0.90;;
32946;SDS011;54465;51.230;22.504;2023-02-12T04:44:21;1.10;;;0.90;;
32946;SDS011;54465;51.230;22.504;2023-02-12T04:49:23;1.50;;;1.05;;
32946;SDS011;54465;51.230;22.504;2023-02-12T04:54:24;2.13;;;0.70;;
32946;SDS011;54465;51.230;22.504;2023-02-12T04:59:25;1.27;;;0.80;;
32946;SDS011;54465;51.230;22.504;2023-02-12T05:04:25;1.75;;;0.80;;
32946;SDS011;54465;51.230;22.504;2023-02-12T05:09:26;1.15;;;0.80;;
32946;SDS011;54465;51.230;22.504;2023-02-12T05:14:26;1.13;;;0.80;;
32946;SDS011;54465;51.230;22.504;2023-02-12T05:19:27;1.63;;;0.90;;
32946;SDS011;54465;51.230;22.504;2023-02-12T05:24:27;2.63;;;0.98;;
32946;SDS011;54465;51.230;22.504;2023-02-12T05:29:28;2.22;;;1.33;;
32946;SDS011;54465;51.230;22.504;2023-02-12T05:34:28;1.88;;;0.90;;
32946;SDS011;54465;51.230;22.504;2023-02-12T05:39:28;1.40;;;0.82;;
32946;SDS011;54465;51.230;22.504;2023-02-12T05:44:29;2.13;;;0.90;;
32946;SDS011;54465;51.230;22.504;2023-02-12T05:49:29;1.02;;;0.77;;
32946;SDS011;54465;51.230;22.504;2023-02-12T05:54:30;1.13;;;0.65;;
32946;SDS011;54465;51.230;22.504;2023-02-12T05:59:30;1.65;;;0.95;;
32946;SDS011;54465;51.230;22.504;2023-02-12T06:04:31;2.90;;;0.90;;
32946;SDS011;54465;51.230;22.504;2023-02-12T06:09:32;2.08;;;1.13;;
32946;SDS011;54465;51.230;22.504;2023-02-12T06:14:34;1.63;;;0.98;;
32946;SDS011;54465;51.230;22.504;2023-02-12T06:19:35;1.30;;;0.93;;
32946;SDS011;54465;51.230;22.504;2023-02-12T06:24:35;1.60;;;0.80;;
32946;SDS011;54465;51.230;22.504;2023-02-12T06:29:36;2.22;;;1.13;;
32946;SDS011;54465;51.230;22.504;2023-02-12T06:34:36;2.33;;;0.90;;
32946;SDS011;54465;51.230;22.504;2023-02-12T06:39:37;1.88;;;1.08;;
32946;SDS011;54465;51.230;22.504;2023-02-12T06:44:37;2.00;;;1.08;;
32946;SDS011;54465;51.230;22.504;2023-02-12T06:49:38;2.33;;;1.40;;
32946;SDS011;54465;51.230;22.504;2023-02-12T06:54:38;2.28;;;1.20;;
32946;SDS011;54465;51.230;22.504;2023-02-12T06:59:39;1.63;;;1.02;;
32946;SDS011;54465;51.230;22.504;2023-02-12T07:04:39;1.77;;;0.88;;
32946;SDS011;54465;51.230;22.504;2023-02-12T07:09:40;2.17;;;1.40;;
32946;SDS011;54465;51.230;22.504;2023-02-12T07:14:40;2.42;;;1.42;;
32946;SDS011;54465;51.230;22.504;2023-02-12T07:19:41;1.88;;;1.13;;
32946;SDS011;54465;51.230;22.504;2023-02-12T07:24:41;1.90;;;1.58;;
32946;SDS011;54465;51.230;22.504;2023-02-12T07:29:42;3.25;;;1.42;;
32946;SDS011;54465;51.230;22.504;2023-02-12T07:34:43;2.47;;;1.50;;
32946;SDS011;54465;51.230;22.504;2023-02-12T07:39:43;2.10;;;1.17;;
32946;SDS011;54465;51.230;22.504;2023-02-12T07:44:44;2.05;;;1.02;;
32946;SDS011;54465;51.230;22.504;2023-02-12T07:49:44;3.05;;;1.38;;
32946;SDS011;54465;51.230;22.504;2023-02-12T07:54:46;1.90;;;1.70;;
32946;SDS011;54465;51.230;22.504;2023-02-12T07:59:46;2.88;;;1.45;;
32946;SDS011;54465;51.230;22.504;2023-02-12T08:04:47;2.15;;;1.42;;
32946;SDS011;54465;51.230;22.504;2023-02-12T08:09:47;3.60;;;1.48;;
32946;SDS011;54465;51.230;22.504;2023-02-12T08:14:48;2.00;;;1.48;;
32946;SDS011;54465;51.230;22.504;2023-02-12T08:19:48;2.03;;;0.98;;
32946;SDS011;54465;51.230;22.504;2023-02-12T08:24:49;1.77;;;1.20;;
32946;SDS011;54465;51.230;22.504;2023-02-12T08:29:49;2.45;;;1.17;;
32946;SDS011;54465;51.230;22.504;2023-02-12T08:34:49;1.60;;;0.90;;
32946;SDS011;54465;51.230;22.504;2023-02-12T08:39:50;2.92;;;1.00;;
32946;SDS011;54465;51.230;22.504;2023-02-12T08:44:50;2.33;;;1.40;;
32946;SDS011;54465;51.230;22.504;2023-02-12T08:49:51;2.05;;;1.63;;
32946;SDS011;54465;51.230;22.504;2023-02-12T08:54:51;4.60;;;1.60;;
32946;SDS011;54465;51.230;22.504;2023-02-12T08:59:52;2.67;;;2.13;;
32946;SDS011;54465;51.230;22.504;2023-02-12T09:04:52;3.70;;;1.35;;
32946;SDS011;54465;51.230;22.504;2023-02-12T09:09:53;1.63;;;1.20;;
32946;SDS011;54465;51.230;22.504;2023-02-12T09:14:53;2.90;;;1.48;;
32946;SDS011;54465;51.230;22.504;2023-02-12T09:19:54;2.17;;;1.33;;
32946;SDS011;54465;51.230;22.504;2023-02-12T09:24:54;2.28;;;1.30;;
32946;SDS011;54465;51.230;22.504;2023-02-12T09:29:55;2.00;;;1.02;;
32946;SDS011;54465;51.230;22.504;2023-02-12T09:34:57;3.13;;;1.40;;
32946;SDS011;54465;51.230;22.504;2023-02-12T09:39:58;3.75;;;1.35;;
32946;SDS011;54465;51.230;22.504;2023-02-12T09:45:04;2.53;;;1.52;;
32946;SDS011;54465;51.230;22.504;2023-02-12T09:55:25;1.75;;;1.15;;
32946;SDS011;54465;51.230;22.504;2023-02-12T10:00:29;1.88;;;1.30;;
32946;SDS011;54465;51.230;22.504;2023-02-12T10:05:31;2.35;;;1.10;;
32946;SDS011;54465;51.230;22.504;2023-02-12T10:10:46;4.10;;;1.60;;
32946;SDS011;54465;51.230;22.504;2023-02-12T10:15:56;2.58;;;1.73;;
32946;SDS011;54465;51.230;22.504;2023-02-12T10:21:10;4.15;;;2.20;;
32946;SDS011;54465;51.230;22.504;2023-02-12T10:26:17;3.28;;;1.60;;
32946;SDS011;54465;51.230;22.504;2023-02-12T10:31:26;3.97;;;1.58;;
32946;SDS011;54465;51.230;22.504;2023-02-12T10:36:42;3.55;;;1.77;;
32946;SDS011;54465;51.230;22.504;2023-02-12T10:41:45;2.97;;;1.60;;
32946;SDS011;54465;51.230;22.504;2023-02-12T10:46:48;3.05;;;1.70;;
32946;SDS011;54465;51.230;22.504;2023-02-12T10:51:55;2.92;;;1.73;;
32946;SDS011;54465;51.230;22.504;2023-02-12T10:57:14;1.80;;;1.60;;
32946;SDS011;54465;51.230;22.504;2023-02-12T11:02:18;3.35;;;1.33;;
32946;SDS011;54465;51.230;22.504;2023-02-12T11:07:21;2.70;;;1.75;;
32946;SDS011;54465;51.230;22.504;2023-02-12T11:12:25;2.42;;;1.67;;
32946;SDS011;54465;51.230;22.504;2023-02-12T11:17:37;3.13;;;1.65;;
32946;SDS011;54465;51.230;22.504;2023-02-12T11:22:39;6.10;;;2.30;;
32946;SDS011;54465;51.230;22.504;2023-02-12T11:33:24;3.55;;;1.98;;
32946;SDS011;54465;51.230;22.504;2023-02-12T11:38:33;2.78;;;1.85;;
32946;SDS011;54465;51.230;22.504;2023-02-12T11:43:36;3.25;;;2.00;;
32946;SDS011;54465;51.230;22.504;2023-02-12T11:48:38;2.67;;;1.98;;
32946;SDS011;54465;51.230;22.504;2023-02-12T11:53:40;3.67;;;1.98;;
32946;SDS011;54465;51.230;22.504;2023-02-12T11:58:42;3.97;;;2.33;;
32946;SDS011;54465;51.230;22.504;2023-02-12T12:14:26;3.92;;;2.90;;
32946;SDS011;54465;51.230;22.504;2023-02-12T12:19:31;3.78;;;2.95;;
32946;SDS011;54465;51.230;22.504;2023-02-12T12:24:54;5.70;;;3.72;;
32946;SDS011;54465;51.230;22.504;2023-02-12T12:29:58;6.15;;;3.67;;
32946;SDS011;54465;51.230;22.504;2023-02-12T12:40:19;6.05;;;3.88;;
32946;SDS011;54465;51.230;22.504;2023-02-12T12:56:33;6.32;;;4.05;;
32946;SDS011;54465;51.230;22.504;2023-02-12T13:12:16;6.50;;;4.32;;
32946;SDS011;54465;51.230;22.504;2023-02-12T13:17:38;7.57;;;4.43;;
32946;SDS011;54465;51.230;22.504;2023-02-12T13:22:51;3.95;;;3.53;;
32946;SDS011;54465;51.230;22.504;2023-02-12T13:28:05;7.28;;;4.07;;
32946;SDS011;54465;51.230;22.504;2023-02-12T13:38:23;6.63;;;3.38;;
32946;SDS011;54465;51.230;22.504;2023-02-12T13:54:05;5.93;;;2.47;;
32946;SDS011;54465;51.230;22.504;2023-02-12T13:59:54;6.13;;;3.15;;
32946;SDS011;54465;51.230;22.504;2023-02-12T14:09:37;4.43;;;3.38;;
32946;SDS011;54465;51.230;22.504;2023-02-12T14:14:43;5.97;;;3.95;;
32946;SDS011;54465;51.230;22.504;2023-02-12T14:24:53;5.38;;;3.10;;
32946;SDS011;54465;51.230;22.504;2023-02-12T14:30:02;4.53;;;2.60;;
32946;SDS011;54465;51.230;22.504;2023-02-12T14:40:43;7.28;;;4.55;;
32946;SDS011;54465;51.230;22.504;2023-02-12T14:45:47;7.35;;;4.80;;
32946;SDS011;54465;51.230;22.504;2023-02-12T14:50:48;8.57;;;5.30;;
32946;SDS011;54465;51.230;22.504;2023-02-12T14:55:51;8.00;;;5.85;;
32946;SDS011;54465;51.230;22.504;2023-02-12T15:00:53;9.23;;;6.10;;
32946;SDS011;54465;51.230;22.504;2023-02-12T15:11:00;9.05;;;5.25;;
32946;SDS011;54465;51.230;22.504;2023-02-12T15:21:29;10.40;;;5.67;;
32946;SDS011;54465;51.230;22.504;2023-02-12T15:26:32;8.40;;;5.00;;
32946;SDS011;54465;51.230;22.504;2023-02-12T15:31:35;12.98;;;7.38;;
32946;SDS011;54465;51.230;22.504;2023-02-12T15:36:35;16.52;;;8.70;;
32946;SDS011;54465;51.230;22.504;2023-02-12T15:41:38;18.25;;;8.80;;
32946;SDS011;54465;51.230;22.504;2023-02-12T15:46:39;9.93;;;6.30;;
32946;SDS011;54465;51.230;22.504;2023-02-12T15:51:39;12.63;;;7.32;;
32946;SDS011;54465;51.230;22.504;2023-02-12T15:56:43;12.05;;;7.18;;
32946;SDS011;54465;51.230;22.504;2023-02-12T16:01:51;11.00;;;6.65;;
32946;SDS011;54465;51.230;22.504;2023-02-12T16:06:53;11.80;;;6.97;;
32946;SDS011;54465;51.230;22.504;2023-02-12T16:11:54;15.27;;;8.63;;
32946;SDS011;54465;51.230;22.504;2023-02-12T16:16:57;26.45;;;13.32;;
32946;SDS011;54465;51.230;22.504;2023-02-12T16:42:37;31.48;;;15.60;;
32946;SDS011;54465;51.230;22.504;2023-02-12T16:47:47;26.67;;;15.15;;
32946;SDS011;54465;51.230;22.504;2023-02-12T16:52:49;37.60;;;19.33;;
32946;SDS011;54465;51.230;22.504;2023-02-12T16:57:59;40.85;;;23.17;;
32946;SDS011;54465;51.230;22.504;2023-02-12T17:03:00;44.08;;;21.83;;
32946;SDS011;54465;51.230;22.504;2023-02-12T17:08:00;39.70;;;21.25;;
32946;SDS011;54465;51.230;22.504;2023-02-12T17:13:01;34.88;;;18.35;;
32946;SDS011;54465;51.230;22.504;2023-02-12T17:18:01;44.13;;;21.45;;
32946;SDS011;54465;51.230;22.504;2023-02-12T17:23:02;38.85;;;20.48;;
32946;SDS011;54465;51.230;22.504;2023-02-12T17:28:03;42.38;;;21.10;;
32946;SDS011;54465;51.230;22.504;2023-02-12T17:33:04;39.08;;;18.80;;
32946;SDS011;54465;51.230;22.504;2023-02-12T17:38:05;40.70;;;19.20;;
32946;SDS011;54465;51.230;22.504;2023-02-12T17:43:06;53.95;;;23.50;;
32946;SDS011;54465;51.230;22.504;2023-02-12T17:48:06;47.30;;;24.00;;
32946;SDS011;54465;51.230;22.504;2023-02-12T17:53:07;34.45;;;17.67;;
32946;SDS011;54465;51.230;22.504;2023-02-12T17:58:08;29.58;;;15.38;;
32946;SDS011;54465;51.230;22.504;2023-02-12T18:03:08;25.30;;;12.05;;
32946;SDS011;54465;51.230;22.504;2023-02-12T18:08:09;25.33;;;14.20;;
32946;SDS011;54465;51.230;22.504;2023-02-12T18:13:09;23.20;;;10.88;;
32946;SDS011;54465;51.230;22.504;2023-02-12T18:18:10;23.40;;;12.55;;
32946;SDS011;54465;51.230;22.504;2023-02-12T18:23:11;31.17;;;15.18;;
32946;SDS011;54465;51.230;22.504;2023-02-12T18:28:11;34.67;;;17.33;;
32946;SDS011;54465;51.230;22.504;2023-02-12T18:33:12;42.03;;;20.77;;
32946;SDS011;54465;51.230;22.504;2023-02-12T18:38:12;51.50;;;23.63;;
32946;SDS011;54465;51.230;22.504;2023-02-12T18:43:13;74.57;;;28.63;;
32946;SDS011;54465;51.230;22.504;2023-02-12T18:48:13;54.55;;;22.48;;
32946;SDS011;54465;51.230;22.504;2023-02-12T18:53:14;50.33;;;20.85;;
32946;SDS011;54465;51.230;22.504;2023-02-12T18:58:14;32.65;;;17.50;;
32946;SDS011;54465;51.230;22.504;2023-02-12T19:03:15;39.97;;;19.10;;
32946;SDS011;54465;51.230;22.504;2023-02-12T19:08:16;33.35;;;16.83;;
32946;SDS011;54465;51.230;22.504;2023-02-12T19:13:16;37.65;;;17.40;;
32946;SDS011;54465;51.230;22.504;2023-02-12T19:18:17;38.88;;;19.70;;
32946;SDS011;54465;51.230;22.504;2023-02-12T19:23:18;38.75;;;19.00;;
32946;SDS011;54465;51.230;22.504;2023-02-12T19:28:19;35.78;;;19.50;;
32946;SDS011;54465;51.230;22.504;2023-02-12T19:33:19;33.80;;;19.10;;
32946;SDS011;54465;51.230;22.504;2023-02-12T19:38:20;32.75;;;19.27;;
32946;SDS011;54465;51.230;22.504;2023-02-12T19:43:20;29.88;;;17.55;;
32946;SDS011;54465;51.230;22.504;2023-02-12T19:48:21;33.30;;;19.73;;
32946;SDS011;54465;51.230;22.504;2023-02-12T19:53:21;37.65;;;20.92;;
32946;SDS011;54465;51.230;22.504;2023-02-12T19:58:22;42.60;;;22.42;;
32946;SDS011;54465;51.230;22.504;2023-02-12T20:03:22;38.15;;;20.83;;
32946;SDS011;54465;51.230;22.504;2023-02-12T20:08:23;36.15;;;19.77;;
32946;SDS011;54465;51.230;22.504;2023-02-12T20:13:23;34.45;;;18.38;;
32946;SDS011;54465;51.230;22.504;2023-02-12T20:18:24;33.10;;;17.45;;
32946;SDS011;54465;51.230;22.504;2023-02-12T20:23:24;31.58;;;15.98;;
32946;SDS011;54465;51.230;22.504;2023-02-12T20:28:25;24.17;;;13.55;;
32946;SDS011;54465;51.230;22.504;2023-02-12T20:33:25;22.23;;;12.50;;
32946;SDS011;54465;51.230;22.504;2023-02-12T20:38:26;24.38;;;14.00;;
32946;SDS011;54465;51.230;22.504;2023-02-12T20:43:27;24.50;;;13.93;;
32946;SDS011;54465;51.230;22.504;2023-02-12T20:48:28;26.15;;;13.55;;
32946;SDS011;54465;51.230;22.504;2023-02-12T20:53:29;23.90;;;13.10;;
32946;SDS011;54465;51.230;22.504;2023-02-12T20:58:31;20.25;;;11.80;;
32946;SDS011;54465;51.230;22.504;2023-02-12T21:03:32;19.58;;;12.02;;
32946;SDS011;54465;51.230;22.504;2023-02-12T21:08:36;22.38;;;11.30;;
32946;SDS011;54465;51.230;22.504;2023-02-12T21:13:37;20.08;;;12.13;;
32946;SDS011;54465;51.230;22.504;2023-02-12T21:18:46;19.38;;;11.63;;
32946;SDS011;54465;51.230;22.504;2023-02-12T21:23:47;19.73;;;11.50;;
32946;SDS011;54465;51.230;22.504;2023-02-12T21:28:48;20.33;;;11.52;;
32946;SDS011;54465;51.230;22.504;2023-02-12T21:33:49;21.48;;;12.80;;
32946;SDS011;54465;51.230;22.504;2023-02-12T21:38:51;22.88;;;12.30;;
32946;SDS011;54465;51.230;22.504;2023-02-12T21:43:55;20.58;;;11.32;;
32946;SDS011;54465;51.230;22.504;2023-02-12T21:48:57;16.35;;;10.55;;
32946;SDS011;54465;51.230;22.504;2023-02-12T21:54:00;17.67;;;10.43;;
32946;SDS011;54465;51.230;22.504;2023-02-12T21:59:02;19.13;;;10.82;;
32946;SDS011;54465;51.230;22.504;2023-02-12T22:04:03;19.92;;;11.43;;
32946;SDS011;54465;51.230;22.504;2023-02-12T22:09:06;20.40;;;11.50;;
32946;SDS011;54465;51.230;22.504;2023-02-12T22:14:09;23.02;;;12.07;;
32946;SDS011;54465;51.230;22.504;2023-02-12T22:19:12;26.30;;;12.07;;
32946;SDS011;54465;51.230;22.504;2023-02-12T22:24:13;21.05;;;12.60;;
32946;SDS011;54465;51.230;22.504;2023-02-12T22:29:14;21.15;;;11.75;;
32946;SDS011;54465;51.230;22.504;2023-02-12T22:34:16;21.20;;;11.60;;
32946;SDS011;54465;51.230;22.504;2023-02-12T22:39:17;27.67;;;13.57;;
32946;SDS011;54465;51.230;22.504;2023-02-12T22:44:18;23.13;;;13.50;;
32946;SDS011;54465;51.230;22.504;2023-02-12T22:49:18;24.75;;;13.40;;
32946;SDS011;54465;51.230;22.504;2023-02-12T22:54:19;21.85;;;12.48;;
32946;SDS011;54465;51.230;22.504;2023-02-12T22:59:20;24.42;;;12.43;;
32946;SDS011;54465;51.230;22.504;2023-02-12T23:04:20;21.58;;;12.07;;
32946;SDS011;54465;51.230;22.504;2023-02-12T23:09:21;19.45;;;11.43;;
32946;SDS011;54465;51.230;22.504;2023-02-12T23:14:21;29.77;;;14.32;;
32946;SDS011;54465;51.230;22.504;2023-02-12T23:19:22;21.08;;;11.88;;
32946;SDS011;54465;51.230;22.504;2023-02-12T23:24:22;21.27;;;12.13;;
32946;SDS011;54465;51.230;22.504;2023-02-12T23:29:24;19.65;;;11.52;;
32946;SDS011;54465;51.230;22.504;2023-02-12T23:34:25;22.75;;;12.13;;
32946;SDS011;54465;51.230;22.504;2023-02-12T23:39:25;24.60;;;12.93;;
32946;SDS011;54465;51.230;22.504;2023-02-12T23:44:26;25.85;;;13.15;;
32946;SDS011;54465;51.230;22.504;2023-02-12T23:49:26;24.77;;;13.95;;
32946;SDS011;54465;51.230;22.504;2023-02-12T23:54:27;26.48;;;12.60;;
32946;SDS011;54465;51.230;22.504;2023-02-12T23:59:27;26.27;;;13.43;;
